Strona główna
METAR-TAF:

METAR-TAF

Lotnisko :

Port lotniczy Bangkok-Don Muang

Bangkok, Tajlandia

Szerokość geograficzna: 13-54-45N, Długość geograficzna: 100-36-24E, wysokość: 4 m

Aktualna obserwacja pogody

Raport powstał 24 minut temu, godzina 05:00 UTC
Wiatr 7 kt od północno-północny wschód, zmienny między zachód i północny wschód
Temperatura 25°C
Wilgotność 41%
Ciśnienie 1018 hPa
Widzialność 10 km lub więcej
Brak chmur poniżej 1500 m i brak chmur cumulonimbus

METAR: VTBD 070500Z 02007KT 280V050 CAVOK 25/11 Q1018 NOSIG

czas: 12:24 (05:24 UTC)

Prognoza

Raport powstał 6 godziny i 24 minut temu, godzina 23:00 UTC
Prognoza ważna od 07 godzina 00 UTC do 08 godzina 06 UTC
Wiatr 8 kt od północny wschód
Widzialność 10 km lub więcej
Mało chmury na wysokości 4000 ft

TAF: VTBD 062300Z 0700/0806 05008KT 9999 FEW040

Obserwacja i prognoza pogody dla ponad 4000 lotnisk (raport METAR i TAF).

Dostępne stacje oznaczono żółtymi i czerwonymi punktami na mapie.

Najedź kursorem aby zobaczyć nazwę stacji.

Kliknij aby zobaczyć obserwacje i prognozy pogody.

Aby zmienić mapę: kliknij na zielony przycisk z czarnym krzyżykiem, aby powiększyć; na zielony przycisk z myślnikiem, aby pomniejszyć; na zielone strzałki, aby przejść do map sąsiednich.


METAR-TAF: